sensor_id;sensor_type;location;lat;lon;timestamp;P1;durP1;ratioP1;P2;durP2;ratioP2
73859;SDS011;62197;51.632;13.700;2023-12-20T00:00:53;1999.90;;;999.90;;
73859;SDS011;62197;51.632;13.700;2023-12-20T00:03:18;1999.90;;;999.90;;
73859;SDS011;62197;51.632;13.700;2023-12-20T00:05:43;1999.90;;;999.90;;
73859;SDS011;62197;51.632;13.700;2023-12-20T00:08:09;1999.90;;;999.90;;
73859;SDS011;62197;51.632;13.700;2023-12-20T00:10:34;1999.90;;;999.90;;
73859;SDS011;62197;51.632;13.700;2023-12-20T00:12:59;1999.90;;;999.90;;
73859;SDS011;62197;51.632;13.700;2023-12-20T00:15:25;1999.90;;;999.90;;
73859;SDS011;62197;51.632;13.700;2023-12-20T00:17:50;1999.90;;;999.90;;
73859;SDS011;62197;51.632;13.700;2023-12-20T00:20:16;1999.90;;;999.90;;
73859;SDS011;62197;51.632;13.700;2023-12-20T00:22:41;1515.53;;;764.25;;
73859;SDS011;62197;51.632;13.700;2023-12-20T00:25:06;1999.90;;;999.90;;
73859;SDS011;62197;51.632;13.700;2023-12-20T00:27:32;1999.90;;;999.90;;
73859;SDS011;62197;51.632;13.700;2023-12-20T00:29:57;1999.90;;;999.90;;
73859;SDS011;62197;51.632;13.700;2023-12-20T00:32:22;1999.90;;;999.90;;
73859;SDS011;62197;51.632;13.700;2023-12-20T00:34:48;1999.90;;;999.90;;
73859;SDS011;62197;51.632;13.700;2023-12-20T00:37:13;1999.90;;;999.90;;
73859;SDS011;62197;51.632;13.700;2023-12-20T00:39:39;1999.90;;;999.90;;
73859;SDS011;62197;51.632;13.700;2023-12-20T00:42:04;1999.90;;;999.90;;
73859;SDS011;62197;51.632;13.700;2023-12-20T00:44:29;1999.90;;;999.90;;
73859;SDS011;62197;51.632;13.700;2023-12-20T00:46:55;1999.90;;;999.90;;
73859;SDS011;62197;51.632;13.700;2023-12-20T00:49:20;1999.90;;;999.90;;
73859;SDS011;62197;51.632;13.700;2023-12-20T00:51:45;1999.90;;;999.90;;
73859;SDS011;62197;51.632;13.700;2023-12-20T00:54:12;1999.90;;;999.90;;
73859;SDS011;62197;51.632;13.700;2023-12-20T00:56:38;1019.80;;;518.80;;
73859;SDS011;62197;51.632;13.700;2023-12-20T00:59:03;10.77;;;8.80;;
73859;SDS011;62197;51.632;13.700;2023-12-20T01:01:29;1503.03;;;752.90;;
73859;SDS011;62197;51.632;13.700;2023-12-20T01:03:54;24.30;;;23.27;;
73859;SDS011;62197;51.632;13.700;2023-12-20T01:06:20;125.13;;;63.63;;
73859;SDS011;62197;51.632;13.700;2023-12-20T01:08:45;1999.90;;;999.90;;
73859;SDS011;62197;51.632;13.700;2023-12-20T01:11:11;1999.90;;;999.90;;
73859;SDS011;62197;51.632;13.700;2023-12-20T01:13:36;1999.90;;;999.90;;
73859;SDS011;62197;51.632;13.700;2023-12-20T01:16:02;1999.90;;;999.90;;
73859;SDS011;62197;51.632;13.700;2023-12-20T01:18:27;1999.90;;;999.90;;
73859;SDS011;62197;51.632;13.700;2023-12-20T01:20:53;1999.90;;;999.90;;
73859;SDS011;62197;51.632;13.700;2023-12-20T01:23:18;1999.90;;;999.90;;
73859;SDS011;62197;51.632;13.700;2023-12-20T01:25:44;1999.90;;;999.90;;
73859;SDS011;62197;51.632;13.700;2023-12-20T01:28:09;1999.90;;;999.90;;
73859;SDS011;62197;51.632;13.700;2023-12-20T01:30:34;1999.90;;;999.90;;
73859;SDS011;62197;51.632;13.700;2023-12-20T01:33:00;9.30;;;6.00;;
73859;SDS011;62197;51.632;13.700;2023-12-20T01:35:26;12.73;;;7.75;;
73859;SDS011;62197;51.632;13.700;2023-12-20T01:37:51;10.82;;;5.72;;
73859;SDS011;62197;51.632;13.700;2023-12-20T01:40:17;11.30;;;6.32;;
73859;SDS011;62197;51.632;13.700;2023-12-20T01:42:44;11.00;;;7.28;;
73859;SDS011;62197;51.632;13.700;2023-12-20T01:45:09;11.90;;;7.30;;
73859;SDS011;62197;51.632;13.700;2023-12-20T01:47:35;8.82;;;6.90;;
73859;SDS011;62197;51.632;13.700;2023-12-20T01:50:01;21.58;;;20.20;;
73859;SDS011;62197;51.632;13.700;2023-12-20T01:52:28;1999.90;;;999.90;;
73859;SDS011;62197;51.632;13.700;2023-12-20T01:54:54;1999.90;;;999.90;;
73859;SDS011;62197;51.632;13.700;2023-12-20T01:57:26;1999.90;;;999.90;;
73859;SDS011;62197;51.632;13.700;2023-12-20T01:59:52;1999.90;;;999.90;;
73859;SDS011;62197;51.632;13.700;2023-12-20T02:02:18;13.18;;;12.35;;
73859;SDS011;62197;51.632;13.700;2023-12-20T02:07:09;1999.90;;;999.90;;
73859;SDS011;62197;51.632;13.700;2023-12-20T02:09:36;1999.90;;;999.90;;
73859;SDS011;62197;51.632;13.700;2023-12-20T02:12:02;31.98;;;30.05;;
73859;SDS011;62197;51.632;13.700;2023-12-20T02:14:28;1999.90;;;999.90;;
73859;SDS011;62197;51.632;13.700;2023-12-20T02:16:57;1016.92;;;515.92;;
73859;SDS011;62197;51.632;13.700;2023-12-20T02:19:22;35.75;;;33.85;;
73859;SDS011;62197;51.632;13.700;2023-12-20T02:21:48;31.25;;;29.45;;
73859;SDS011;62197;51.632;13.700;2023-12-20T02:24:14;14.38;;;13.23;;
73859;SDS011;62197;51.632;13.700;2023-12-20T02:26:40;11.77;;;10.75;;
73859;SDS011;62197;51.632;13.700;2023-12-20T02:29:05;19.65;;;18.35;;
73859;SDS011;62197;51.632;13.700;2023-12-20T02:31:31;1999.90;;;999.90;;
73859;SDS011;62197;51.632;13.700;2023-12-20T02:33:56;1999.90;;;999.90;;
73859;SDS011;62197;51.632;13.700;2023-12-20T02:36:22;1999.90;;;999.90;;
73859;SDS011;62197;51.632;13.700;2023-12-20T02:38:47;1999.90;;;999.90;;
73859;SDS011;62197;51.632;13.700;2023-12-20T02:41:13;14.32;;;13.23;;
73859;SDS011;62197;51.632;13.700;2023-12-20T02:43:40;23.55;;;21.90;;
73859;SDS011;62197;51.632;13.700;2023-12-20T02:46:06;1999.90;;;999.90;;
73859;SDS011;62197;51.632;13.700;2023-12-20T02:48:31;10.25;;;6.18;;
73859;SDS011;62197;51.632;13.700;2023-12-20T02:50:56;5.13;;;4.65;;
73859;SDS011;62197;51.632;13.700;2023-12-20T02:53:22;10.80;;;9.65;;
73859;SDS011;62197;51.632;13.700;2023-12-20T02:55:47;27.15;;;25.55;;
73859;SDS011;62197;51.632;13.700;2023-12-20T02:58:13;526.80;;;275.27;;
73859;SDS011;62197;51.632;13.700;2023-12-20T03:00:38;1999.90;;;999.90;;
73859;SDS011;62197;51.632;13.700;2023-12-20T03:03:03;1999.90;;;999.90;;
73859;SDS011;62197;51.632;13.700;2023-12-20T03:05:29;20.23;;;18.88;;
73859;SDS011;62197;51.632;13.700;2023-12-20T03:07:54;14.10;;;12.82;;
73859;SDS011;62197;51.632;13.700;2023-12-20T03:10:20;18.88;;;17.58;;
73859;SDS011;62197;51.632;13.700;2023-12-20T03:12:45;14.07;;;12.85;;
73859;SDS011;62197;51.632;13.700;2023-12-20T03:15:10;13.85;;;12.68;;
73859;SDS011;62197;51.632;13.700;2023-12-20T03:17:36;11.70;;;10.98;;
73859;SDS011;62197;51.632;13.700;2023-12-20T03:20:01;1999.90;;;999.90;;
73859;SDS011;62197;51.632;13.700;2023-12-20T03:22:27;1501.10;;;751.08;;
73859;SDS011;62197;51.632;13.700;2023-12-20T03:24:52;1999.90;;;999.90;;
73859;SDS011;62197;51.632;13.700;2023-12-20T03:27:17;49.38;;;46.70;;
73859;SDS011;62197;51.632;13.700;2023-12-20T03:29:43;1999.90;;;999.90;;
73859;SDS011;62197;51.632;13.700;2023-12-20T03:32:08;1999.90;;;999.90;;
73859;SDS011;62197;51.632;13.700;2023-12-20T03:34:34;1999.90;;;999.90;;
73859;SDS011;62197;51.632;13.700;2023-12-20T03:36:59;557.28;;;304.88;;
73859;SDS011;62197;51.632;13.700;2023-12-20T03:39:24;1999.90;;;999.90;;
73859;SDS011;62197;51.632;13.700;2023-12-20T03:41:50;1999.90;;;999.90;;
73859;SDS011;62197;51.632;13.700;2023-12-20T03:44:15;1999.90;;;999.90;;
73859;SDS011;62197;51.632;13.700;2023-12-20T03:46:41;1999.90;;;999.90;;
73859;SDS011;62197;51.632;13.700;2023-12-20T03:49:06;1999.90;;;999.90;;
73859;SDS011;62197;51.632;13.700;2023-12-20T03:51:31;1999.90;;;999.90;;
73859;SDS011;62197;51.632;13.700;2023-12-20T03:53:57;1999.90;;;999.90;;
73859;SDS011;62197;51.632;13.700;2023-12-20T03:56:22;1999.90;;;999.90;;
73859;SDS011;62197;51.632;13.700;2023-12-20T03:58:47;1999.90;;;999.90;;
73859;SDS011;62197;51.632;13.700;2023-12-20T04:01:13;1999.90;;;999.90;;
73859;SDS011;62197;51.632;13.700;2023-12-20T04:03:38;1999.90;;;999.90;;
73859;SDS011;62197;51.632;13.700;2023-12-20T04:06:04;1999.90;;;999.90;;
73859;SDS011;62197;51.632;13.700;2023-12-20T04:08:29;1999.90;;;999.90;;
73859;SDS011;62197;51.632;13.700;2023-12-20T04:10:55;1999.90;;;999.90;;
73859;SDS011;62197;51.632;13.700;2023-12-20T04:13:20;1999.90;;;999.90;;
73859;SDS011;62197;51.632;13.700;2023-12-20T04:15:45;1999.90;;;999.90;;
73859;SDS011;62197;51.632;13.700;2023-12-20T04:18:11;1999.90;;;999.90;;
73859;SDS011;62197;51.632;13.700;2023-12-20T04:20:36;1999.90;;;999.90;;
73859;SDS011;62197;51.632;13.700;2023-12-20T04:23:01;7.15;;;4.15;;
73859;SDS011;62197;51.632;13.700;2023-12-20T04:25:27;8.32;;;4.03;;
73859;SDS011;62197;51.632;13.700;2023-12-20T04:27:52;8.13;;;3.80;;
73859;SDS011;62197;51.632;13.700;2023-12-20T04:30:17;7.10;;;3.80;;
73859;SDS011;62197;51.632;13.700;2023-12-20T04:32:43;6.80;;;3.10;;
73859;SDS011;62197;51.632;13.700;2023-12-20T04:35:08;3.58;;;2.22;;
73859;SDS011;62197;51.632;13.700;2023-12-20T04:37:33;5.50;;;2.90;;
73859;SDS011;62197;51.632;13.700;2023-12-20T04:39:59;8.32;;;3.80;;
73859;SDS011;62197;51.632;13.700;2023-12-20T04:42:24;8.55;;;3.47;;
73859;SDS011;62197;51.632;13.700;2023-12-20T04:44:50;4.85;;;2.17;;
73859;SDS011;62197;51.632;13.700;2023-12-20T04:47:15;4.55;;;2.42;;
73859;SDS011;62197;51.632;13.700;2023-12-20T04:49:40;4.57;;;2.92;;
73859;SDS011;62197;51.632;13.700;2023-12-20T04:52:06;7.13;;;2.92;;
73859;SDS011;62197;51.632;13.700;2023-12-20T04:54:31;7.35;;;3.88;;
73859;SDS011;62197;51.632;13.700;2023-12-20T04:56:57;6.13;;;3.17;;
73859;SDS011;62197;51.632;13.700;2023-12-20T04:59:22;4.75;;;3.03;;
73859;SDS011;62197;51.632;13.700;2023-12-20T05:01:47;4.60;;;2.33;;
73859;SDS011;62197;51.632;13.700;2023-12-20T05:04:13;4.05;;;2.53;;
73859;SDS011;62197;51.632;13.700;2023-12-20T05:06:38;4.97;;;3.20;;
73859;SDS011;62197;51.632;13.700;2023-12-20T05:09:03;5.15;;;2.42;;
73859;SDS011;62197;51.632;13.700;2023-12-20T05:11:29;4.10;;;2.08;;
73859;SDS011;62197;51.632;13.700;2023-12-20T05:13:54;5.68;;;2.88;;
73859;SDS011;62197;51.632;13.700;2023-12-20T05:16:19;4.03;;;2.20;;
73859;SDS011;62197;51.632;13.700;2023-12-20T05:18:46;4.78;;;2.30;;
73859;SDS011;62197;51.632;13.700;2023-12-20T05:21:12;3.70;;;2.22;;
73859;SDS011;62197;51.632;13.700;2023-12-20T05:23:38;4.95;;;2.45;;
73859;SDS011;62197;51.632;13.700;2023-12-20T05:26:03;5.22;;;2.17;;
73859;SDS011;62197;51.632;13.700;2023-12-20T05:28:29;1999.90;;;999.90;;
73859;SDS011;62197;51.632;13.700;2023-12-20T05:30:54;80.07;;;24.08;;
73859;SDS011;62197;51.632;13.700;2023-12-20T05:33:19;5.05;;;3.25;;
73859;SDS011;62197;51.632;13.700;2023-12-20T05:35:45;4.78;;;2.60;;
73859;SDS011;62197;51.632;13.700;2023-12-20T05:38:10;516.55;;;265.60;;
73859;SDS011;62197;51.632;13.700;2023-12-20T05:40:35;6.45;;;5.03;;
73859;SDS011;62197;51.632;13.700;2023-12-20T05:43:01;5.88;;;2.95;;
73859;SDS011;62197;51.632;13.700;2023-12-20T05:47:52;8.20;;;3.43;;
73859;SDS011;62197;51.632;13.700;2023-12-20T05:50:17;6.78;;;4.15;;
73859;SDS011;62197;51.632;13.700;2023-12-20T05:52:43;4.90;;;2.65;;
73859;SDS011;62197;51.632;13.700;2023-12-20T05:55:08;7.15;;;2.75;;
73859;SDS011;62197;51.632;13.700;2023-12-20T05:57:34;5.68;;;3.28;;
73859;SDS011;62197;51.632;13.700;2023-12-20T06:02:25;5.40;;;2.70;;
73859;SDS011;62197;51.632;13.700;2023-12-20T06:04:50;5.07;;;1.98;;
73859;SDS011;62197;51.632;13.700;2023-12-20T06:07:16;4.40;;;2.65;;
73859;SDS011;62197;51.632;13.700;2023-12-20T06:09:41;5.15;;;2.05;;
73859;SDS011;62197;51.632;13.700;2023-12-20T06:12:07;12.70;;;4.70;;
73859;SDS011;62197;51.632;13.700;2023-12-20T06:14:33;4.82;;;2.72;;
73859;SDS011;62197;51.632;13.700;2023-12-20T06:16:58;8.80;;;3.58;;
73859;SDS011;62197;51.632;13.700;2023-12-20T06:19:24;9.18;;;3.03;;
73859;SDS011;62197;51.632;13.700;2023-12-20T06:21:49;7.78;;;3.60;;
73859;SDS011;62197;51.632;13.700;2023-12-20T06:24:14;7.20;;;3.40;;
73859;SDS011;62197;51.632;13.700;2023-12-20T06:26:40;10.73;;;3.53;;
73859;SDS011;62197;51.632;13.700;2023-12-20T06:29:05;9.35;;;3.60;;
73859;SDS011;62197;51.632;13.700;2023-12-20T06:31:31;4.82;;;2.22;;
73859;SDS011;62197;51.632;13.700;2023-12-20T06:33:58;7.97;;;2.90;;
73859;SDS011;62197;51.632;13.700;2023-12-20T06:36:24;7.45;;;3.25;;
73859;SDS011;62197;51.632;13.700;2023-12-20T06:38:50;7.30;;;3.00;;
73859;SDS011;62197;51.632;13.700;2023-12-20T06:41:16;8.13;;;3.33;;
73859;SDS011;62197;51.632;13.700;2023-12-20T06:43:41;8.35;;;3.03;;
73859;SDS011;62197;51.632;13.700;2023-12-20T06:46:07;9.70;;;4.35;;
73859;SDS011;62197;51.632;13.700;2023-12-20T06:48:32;9.15;;;3.80;;
73859;SDS011;62197;51.632;13.700;2023-12-20T06:50:59;6.93;;;2.88;;
73859;SDS011;62197;51.632;13.700;2023-12-20T06:53:25;9.18;;;3.63;;
73859;SDS011;62197;51.632;13.700;2023-12-20T06:55:51;12.48;;;3.20;;
73859;SDS011;62197;51.632;13.700;2023-12-20T06:58:16;9.48;;;3.50;;
73859;SDS011;62197;51.632;13.700;2023-12-20T07:00:41;6.57;;;3.03;;
73859;SDS011;62197;51.632;13.700;2023-12-20T07:03:07;10.82;;;4.50;;
73859;SDS011;62197;51.632;13.700;2023-12-20T07:05:32;7.40;;;3.55;;
73859;SDS011;62197;51.632;13.700;2023-12-20T07:07:58;10.13;;;3.53;;
73859;SDS011;62197;51.632;13.700;2023-12-20T07:10:23;8.38;;;3.78;;
73859;SDS011;62197;51.632;13.700;2023-12-20T07:12:49;4.97;;;2.60;;
73859;SDS011;62197;51.632;13.700;2023-12-20T07:15:16;11.80;;;4.13;;
73859;SDS011;62197;51.632;13.700;2023-12-20T07:17:41;8.77;;;3.90;;
73859;SDS011;62197;51.632;13.700;2023-12-20T07:20:07;11.85;;;4.90;;
73859;SDS011;62197;51.632;13.700;2023-12-20T07:22:35;10.02;;;5.03;;
73859;SDS011;62197;51.632;13.700;2023-12-20T07:25:01;10.90;;;4.13;;
73859;SDS011;62197;51.632;13.700;2023-12-20T07:27:26;23.15;;;4.47;;
73859;SDS011;62197;51.632;13.700;2023-12-20T07:29:52;12.05;;;5.60;;
73859;SDS011;62197;51.632;13.700;2023-12-20T07:32:18;16.25;;;7.13;;
73859;SDS011;62197;51.632;13.700;2023-12-20T07:34:43;19.23;;;8.88;;
73859;SDS011;62197;51.632;13.700;2023-12-20T07:37:08;18.70;;;7.20;;
73859;SDS011;62197;51.632;13.700;2023-12-20T07:39:39;20.73;;;7.28;;
73859;SDS011;62197;51.632;13.700;2023-12-20T07:42:05;17.95;;;7.15;;
73859;SDS011;62197;51.632;13.700;2023-12-20T07:44:30;15.80;;;7.13;;
73859;SDS011;62197;51.632;13.700;2023-12-20T07:46:56;8.55;;;4.35;;
73859;SDS011;62197;51.632;13.700;2023-12-20T07:49:22;8.23;;;3.90;;
73859;SDS011;62197;51.632;13.700;2023-12-20T07:51:48;13.40;;;5.78;;
73859;SDS011;62197;51.632;13.700;2023-12-20T07:54:13;15.40;;;6.45;;
73859;SDS011;62197;51.632;13.700;2023-12-20T07:56:39;16.48;;;6.05;;
73859;SDS011;62197;51.632;13.700;2023-12-20T07:59:05;17.58;;;7.05;;
73859;SDS011;62197;51.632;13.700;2023-12-20T08:01:30;15.88;;;6.60;;
73859;SDS011;62197;51.632;13.700;2023-12-20T08:03:56;16.05;;;6.50;;
73859;SDS011;62197;51.632;13.700;2023-12-20T08:06:22;16.58;;;5.70;;
73859;SDS011;62197;51.632;13.700;2023-12-20T08:08:47;11.43;;;6.95;;
73859;SDS011;62197;51.632;13.700;2023-12-20T08:11:12;13.68;;;4.82;;
73859;SDS011;62197;51.632;13.700;2023-12-20T08:13:38;13.95;;;4.68;;
73859;SDS011;62197;51.632;13.700;2023-12-20T08:16:03;10.55;;;4.70;;
73859;SDS011;62197;51.632;13.700;2023-12-20T08:18:29;9.20;;;3.67;;
73859;SDS011;62197;51.632;13.700;2023-12-20T08:20:54;6.05;;;3.25;;
73859;SDS011;62197;51.632;13.700;2023-12-20T08:23:20;9.07;;;5.03;;
73859;SDS011;62197;51.632;13.700;2023-12-20T08:25:46;7.22;;;3.20;;
73859;SDS011;62197;51.632;13.700;2023-12-20T08:28:11;8.30;;;2.75;;
73859;SDS011;62197;51.632;13.700;2023-12-20T08:30:36;10.40;;;3.05;;
73859;SDS011;62197;51.632;13.700;2023-12-20T08:33:02;9.95;;;2.30;;
73859;SDS011;62197;51.632;13.700;2023-12-20T08:35:27;8.40;;;3.30;;
73859;SDS011;62197;51.632;13.700;2023-12-20T08:37:53;7.30;;;3.70;;
73859;SDS011;62197;51.632;13.700;2023-12-20T08:40:18;8.02;;;3.38;;
73859;SDS011;62197;51.632;13.700;2023-12-20T08:42:43;6.72;;;3.03;;
73859;SDS011;62197;51.632;13.700;2023-12-20T08:45:09;16.35;;;3.40;;
73859;SDS011;62197;51.632;13.700;2023-12-20T08:47:35;4.38;;;2.70;;
73859;SDS011;62197;51.632;13.700;2023-12-20T08:50:00;4.32;;;2.08;;
73859;SDS011;62197;51.632;13.700;2023-12-20T08:52:27;7.30;;;3.15;;
73859;SDS011;62197;51.632;13.700;2023-12-20T08:54:54;6.13;;;3.15;;
73859;SDS011;62197;51.632;13.700;2023-12-20T08:57:19;5.63;;;3.00;;
73859;SDS011;62197;51.632;13.700;2023-12-20T08:59:46;5.88;;;2.88;;
73859;SDS011;62197;51.632;13.700;2023-12-20T09:02:12;7.78;;;3.85;;
73859;SDS011;62197;51.632;13.700;2023-12-20T09:04:38;4.35;;;2.42;;
73859;SDS011;62197;51.632;13.700;2023-12-20T09:07:04;12.10;;;2.75;;
73859;SDS011;62197;51.632;13.700;2023-12-20T09:09:29;5.10;;;2.13;;
73859;SDS011;62197;51.632;13.700;2023-12-20T09:11:57;5.05;;;2.65;;
73859;SDS011;62197;51.632;13.700;2023-12-20T09:14:22;5.03;;;1.92;;
73859;SDS011;62197;51.632;13.700;2023-12-20T09:16:48;4.00;;;1.88;;
73859;SDS011;62197;51.632;13.700;2023-12-20T09:19:16;5.00;;;1.85;;
73859;SDS011;62197;51.632;13.700;2023-12-20T09:21:41;4.97;;;1.77;;
73859;SDS011;62197;51.632;13.700;2023-12-20T09:24:07;4.15;;;2.45;;
73859;SDS011;62197;51.632;13.700;2023-12-20T09:26:33;3.33;;;1.73;;
73859;SDS011;62197;51.632;13.700;2023-12-20T09:28:59;4.85;;;1.45;;
73859;SDS011;62197;51.632;13.700;2023-12-20T09:31:24;2.67;;;1.48;;
73859;SDS011;62197;51.632;13.700;2023-12-20T09:33:49;1.95;;;1.00;;
73859;SDS011;62197;51.632;13.700;2023-12-20T09:36:15;3.05;;;1.30;;
73859;SDS011;62197;51.632;13.700;2023-12-20T09:38:40;3.65;;;1.25;;
73859;SDS011;62197;51.632;13.700;2023-12-20T09:41:05;2.17;;;1.30;;
73859;SDS011;62197;51.632;13.700;2023-12-20T09:43:31;2.50;;;1.15;;
73859;SDS011;62197;51.632;13.700;2023-12-20T09:46:02;4.90;;;1.00;;
73859;SDS011;62197;51.632;13.700;2023-12-20T09:48:30;0.85;;;0.55;;
73859;SDS011;62197;51.632;13.700;2023-12-20T09:50:56;1.42;;;0.73;;
73859;SDS011;62197;51.632;13.700;2023-12-20T09:53:22;1.70;;;0.90;;
73859;SDS011;62197;51.632;13.700;2023-12-20T09:55:54;2.08;;;1.10;;
73859;SDS011;62197;51.632;13.700;2023-12-20T09:58:23;2.17;;;1.00;;
73859;SDS011;62197;51.632;13.700;2023-12-20T10:00:48;2.65;;;0.85;;
73859;SDS011;62197;51.632;13.700;2023-12-20T10:05:40;1.75;;;1.10;;
73859;SDS011;62197;51.632;13.700;2023-12-20T10:08:09;4.30;;;0.70;;
73859;SDS011;62197;51.632;13.700;2023-12-20T10:10:34;1.88;;;0.82;;
73859;SDS011;62197;51.632;13.700;2023-12-20T10:15:35;4.03;;;0.77;;
73859;SDS011;62197;51.632;13.700;2023-12-20T10:18:01;1.95;;;0.73;;
73859;SDS011;62197;51.632;13.700;2023-12-20T10:22:54;1.85;;;0.60;;
73859;SDS011;62197;51.632;13.700;2023-12-20T10:25:20;5.18;;;0.90;;
73859;SDS011;62197;51.632;13.700;2023-12-20T10:27:46;1.63;;;1.00;;
73859;SDS011;62197;51.632;13.700;2023-12-20T10:30:12;0.95;;;0.63;;
73859;SDS011;62197;51.632;13.700;2023-12-20T10:32:38;1.25;;;0.82;;
73859;SDS011;62197;51.632;13.700;2023-12-20T10:35:04;4.18;;;1.70;;
73859;SDS011;62197;51.632;13.700;2023-12-20T10:37:29;2.67;;;1.25;;
73859;SDS011;62197;51.632;13.700;2023-12-20T10:39:55;9.80;;;1.17;;
73859;SDS011;62197;51.632;13.700;2023-12-20T10:42:27;1.67;;;0.85;;
73859;SDS011;62197;51.632;13.700;2023-12-20T10:44:54;1.65;;;0.93;;
73859;SDS011;62197;51.632;13.700;2023-12-20T10:47:20;4.43;;;1.10;;
73859;SDS011;62197;51.632;13.700;2023-12-20T10:49:45;5.88;;;1.13;;
73859;SDS011;62197;51.632;13.700;2023-12-20T10:52:11;2.45;;;0.70;;
73859;SDS011;62197;51.632;13.700;2023-12-20T10:54:37;2.80;;;0.95;;
73859;SDS011;62197;51.632;13.700;2023-12-20T10:57:05;0.70;;;0.63;;
73859;SDS011;62197;51.632;13.700;2023-12-20T10:59:32;3.63;;;1.10;;
73859;SDS011;62197;51.632;13.700;2023-12-20T11:02:01;3.92;;;1.23;;
73859;SDS011;62197;51.632;13.700;2023-12-20T11:04:31;2.65;;;0.75;;
73859;SDS011;62197;51.632;13.700;2023-12-20T11:07:15;2.75;;;0.90;;
73859;SDS011;62197;51.632;13.700;2023-12-20T11:09:54;2.47;;;0.90;;
73859;SDS011;62197;51.632;13.700;2023-12-20T11:15:12;1.77;;;1.02;;
73859;SDS011;62197;51.632;13.700;2023-12-20T11:17:40;2.30;;;1.02;;
73859;SDS011;62197;51.632;13.700;2023-12-20T11:20:07;3.05;;;1.02;;
73859;SDS011;62197;51.632;13.700;2023-12-20T11:22:35;4.53;;;1.10;;
73859;SDS011;62197;51.632;13.700;2023-12-20T11:25:05;3.42;;;1.30;;
73859;SDS011;62197;51.632;13.700;2023-12-20T11:27:33;1.63;;;0.95;;
73859;SDS011;62197;51.632;13.700;2023-12-20T11:29:58;3.20;;;1.35;;
73859;SDS011;62197;51.632;13.700;2023-12-20T11:34:54;1.98;;;0.70;;
73859;SDS011;62197;51.632;13.700;2023-12-20T11:37:21;3.47;;;1.08;;
73859;SDS011;62197;51.632;13.700;2023-12-20T11:42:19;1.95;;;1.33;;
73859;SDS011;62197;51.632;13.700;2023-12-20T11:44:45;4.68;;;1.33;;
73859;SDS011;62197;51.632;13.700;2023-12-20T11:47:11;3.10;;;1.02;;
73859;SDS011;62197;51.632;13.700;2023-12-20T11:49:37;5.68;;;1.27;;
73859;SDS011;62197;51.632;13.700;2023-12-20T11:52:03;2.78;;;1.05;;
73859;SDS011;62197;51.632;13.700;2023-12-20T11:54:29;4.45;;;1.42;;
73859;SDS011;62197;51.632;13.700;2023-12-20T11:56:55;1.13;;;0.65;;
73859;SDS011;62197;51.632;13.700;2023-12-20T11:59:21;2.40;;;1.30;;
73859;SDS011;62197;51.632;13.700;2023-12-20T12:01:52;4.40;;;1.02;;
73859;SDS011;62197;51.632;13.700;2023-12-20T12:04:17;2.97;;;0.90;;
73859;SDS011;62197;51.632;13.700;2023-12-20T12:06:43;3.28;;;1.13;;
73859;SDS011;62197;51.632;13.700;2023-12-20T12:09:10;2.67;;;1.88;;
73859;SDS011;62197;51.632;13.700;2023-12-20T12:11:35;3.00;;;1.83;;
73859;SDS011;62197;51.632;13.700;2023-12-20T12:14:01;2.92;;;1.38;;
73859;SDS011;62197;51.632;13.700;2023-12-20T12:16:26;2.38;;;0.85;;
73859;SDS011;62197;51.632;13.700;2023-12-20T12:18:58;7.53;;;1.20;;
73859;SDS011;62197;51.632;13.700;2023-12-20T12:21:23;6.22;;;1.48;;
73859;SDS011;62197;51.632;13.700;2023-12-20T12:23:49;2.72;;;1.58;;
73859;SDS011;62197;51.632;13.700;2023-12-20T12:26:14;2.08;;;1.17;;
73859;SDS011;62197;51.632;13.700;2023-12-20T12:28:40;1.80;;;0.82;;
73859;SDS011;62197;51.632;13.700;2023-12-20T12:31:12;3.72;;;0.90;;
73859;SDS011;62197;51.632;13.700;2023-12-20T12:33:40;4.78;;;0.60;;
73859;SDS011;62197;51.632;13.700;2023-12-20T12:36:07;3.55;;;1.38;;
73859;SDS011;62197;51.632;13.700;2023-12-20T12:38:33;1.98;;;1.33;;
73859;SDS011;62197;51.632;13.700;2023-12-20T12:40:59;3.63;;;1.42;;
73859;SDS011;62197;51.632;13.700;2023-12-20T12:43:25;2.88;;;0.85;;
73859;SDS011;62197;51.632;13.700;2023-12-20T12:45:51;3.45;;;0.82;;
73859;SDS011;62197;51.632;13.700;2023-12-20T12:48:16;6.65;;;1.20;;
73859;SDS011;62197;51.632;13.700;2023-12-20T12:50:42;3.58;;;0.85;;
73859;SDS011;62197;51.632;13.700;2023-12-20T12:53:08;3.83;;;0.82;;
73859;SDS011;62197;51.632;13.700;2023-12-20T12:55:34;1.55;;;0.88;;
73859;SDS011;62197;51.632;13.700;2023-12-20T12:58:00;1.25;;;0.65;;
73859;SDS011;62197;51.632;13.700;2023-12-20T13:00:25;3.53;;;1.20;;
73859;SDS011;62197;51.632;13.700;2023-12-20T13:02:51;0.57;;;0.43;;
73859;SDS011;62197;51.632;13.700;2023-12-20T13:05:16;3.55;;;1.48;;
73859;SDS011;62197;51.632;13.700;2023-12-20T13:07:42;5.00;;;1.35;;
73859;SDS011;62197;51.632;13.700;2023-12-20T13:10:10;2.45;;;0.80;;
73859;SDS011;62197;51.632;13.700;2023-12-20T13:12:36;6.35;;;1.13;;
73859;SDS011;62197;51.632;13.700;2023-12-20T13:15:01;1.10;;;0.55;;
73859;SDS011;62197;51.632;13.700;2023-12-20T13:17:28;5.75;;;0.85;;
73859;SDS011;62197;51.632;13.700;2023-12-20T13:19:54;2.42;;;0.80;;
73859;SDS011;62197;51.632;13.700;2023-12-20T13:22:19;5.47;;;1.00;;
73859;SDS011;62197;51.632;13.700;2023-12-20T13:24:45;6.10;;;1.00;;
73859;SDS011;62197;51.632;13.700;2023-12-20T13:27:10;3.70;;;0.93;;
73859;SDS011;62197;51.632;13.700;2023-12-20T13:29:36;3.53;;;1.00;;
73859;SDS011;62197;51.632;13.700;2023-12-20T13:32:01;3.03;;;2.53;;
73859;SDS011;62197;51.632;13.700;2023-12-20T13:34:28;2.40;;;0.55;;
73859;SDS011;62197;51.632;13.700;2023-12-20T13:36:54;2.20;;;0.90;;
73859;SDS011;62197;51.632;13.700;2023-12-20T13:39:19;5.13;;;1.00;;
73859;SDS011;62197;51.632;13.700;2023-12-20T13:41:45;0.75;;;0.70;;
73859;SDS011;62197;51.632;13.700;2023-12-20T13:44:10;4.53;;;1.00;;
73859;SDS011;62197;51.632;13.700;2023-12-20T13:46:38;6.55;;;1.15;;
73859;SDS011;62197;51.632;13.700;2023-12-20T13:49:03;2.75;;;0.70;;
73859;SDS011;62197;51.632;13.700;2023-12-20T13:51:30;1.73;;;0.98;;
73859;SDS011;62197;51.632;13.700;2023-12-20T13:53:55;3.97;;;1.00;;
73859;SDS011;62197;51.632;13.700;2023-12-20T13:56:21;2.47;;;0.90;;
73859;SDS011;62197;51.632;13.700;2023-12-20T13:58:48;1.35;;;0.70;;
73859;SDS011;62197;51.632;13.700;2023-12-20T14:01:13;2.05;;;0.98;;
73859;SDS011;62197;51.632;13.700;2023-12-20T14:03:39;2.47;;;0.90;;
73859;SDS011;62197;51.632;13.700;2023-12-20T14:06:04;3.10;;;0.77;;
73859;SDS011;62197;51.632;13.700;2023-12-20T14:08:30;6.22;;;1.13;;
73859;SDS011;62197;51.632;13.700;2023-12-20T14:10:55;1.42;;;0.95;;
73859;SDS011;62197;51.632;13.700;2023-12-20T14:13:21;2.35;;;0.63;;
73859;SDS011;62197;51.632;13.700;2023-12-20T14:15:46;5.40;;;0.98;;
73859;SDS011;62197;51.632;13.700;2023-12-20T14:18:14;2.95;;;0.90;;
73859;SDS011;62197;51.632;13.700;2023-12-20T14:20:40;2.72;;;1.33;;
73859;SDS011;62197;51.632;13.700;2023-12-20T14:23:07;1.95;;;1.50;;
73859;SDS011;62197;51.632;13.700;2023-12-20T14:25:34;3.55;;;1.70;;
73859;SDS011;62197;51.632;13.700;2023-12-20T14:28:02;1.63;;;0.70;;
73859;SDS011;62197;51.632;13.700;2023-12-20T14:30:30;8.30;;;1.27;;